createdAt,value
2018-11-22T00:02:24.579Z,36.80
2018-11-22T00:04:56.134Z,42.27
2018-11-22T00:07:26.024Z,37.30
2018-11-22T00:09:55.779Z,38.47
2018-11-22T00:12:25.844Z,41.87
2018-11-22T00:14:56.319Z,41.17
2018-11-22T00:17:26.634Z,39.67
2018-11-22T00:19:56.798Z,40.28
2018-11-22T00:22:26.862Z,41.63
2018-11-22T00:24:56.795Z,41.43
2018-11-22T00:27:26.999Z,34.70
2018-11-22T00:29:57.293Z,37.98
2018-11-22T00:32:27.404Z,33.93
2018-11-22T00:34:57.359Z,36.83
2018-11-22T00:37:27.549Z,45.70
2018-11-22T00:39:57.513Z,32.97
2018-11-22T00:42:27.279Z,39.33
2018-11-22T00:44:57.141Z,37.23
2018-11-22T00:47:26.964Z,34.78
2018-11-22T00:49:56.989Z,38.48
2018-11-22T00:52:26.779Z,34.57
2018-11-22T00:54:56.485Z,38.20
2018-11-22T00:57:26.409Z,41.97
2018-11-22T00:59:56.739Z,36.07
2018-11-22T01:02:26.574Z,37.73
2018-11-22T01:04:56.334Z,39.60
2018-11-22T01:07:26.184Z,39.03
2018-11-22T01:09:56.173Z,37.27
2018-11-22T01:12:25.929Z,43.07
2018-11-22T01:14:55.749Z,37.03
2018-11-22T01:17:25.555Z,35.20
2018-11-22T01:19:55.494Z,39.88
2018-11-22T01:22:25.306Z,39.30
2018-11-22T01:24:55.130Z,48.00
2018-11-22T01:27:24.809Z,41.63
2018-11-22T01:29:55.009Z,35.90
2018-11-22T01:32:24.879Z,37.93
2018-11-22T01:34:54.620Z,34.70
2018-11-22T01:37:24.784Z,38.90
2018-11-22T01:39:55.825Z,40.03
2018-11-22T01:42:25.659Z,33.80
2018-11-22T01:44:56.099Z,34.07
2018-11-22T01:47:26.100Z,33.07
2018-11-22T01:49:56.043Z,31.73
2018-11-22T01:52:25.879Z,29.63
2018-11-22T01:54:55.904Z,29.33
2018-11-22T01:57:25.647Z,30.13
2018-11-22T01:59:55.770Z,31.70
2018-11-22T02:02:25.699Z,30.00
2018-11-22T02:04:55.764Z,27.47
2018-11-22T02:07:26.230Z,31.37
2018-11-22T02:09:56.550Z,33.07
2018-11-22T02:12:26.459Z,37.93
2018-11-22T02:14:56.681Z,36.57
2018-11-22T02:17:26.584Z,33.97
2018-11-22T02:19:56.899Z,40.23
2018-11-22T02:22:26.919Z,32.13
2018-11-22T02:24:57.020Z,36.70
2018-11-22T02:27:26.794Z,35.37
2018-11-22T02:29:56.704Z,37.20
2018-11-22T02:32:26.578Z,33.30
2018-11-22T02:34:56.749Z,37.97
2018-11-22T02:37:26.768Z,32.20
2018-11-22T02:39:56.684Z,33.10
2018-11-22T02:42:26.635Z,40.83
2018-11-22T02:44:56.794Z,35.03
2018-11-22T02:47:26.515Z,37.47
2018-11-22T02:49:56.640Z,32.13
2018-11-22T02:52:27.194Z,41.50
2018-11-22T02:54:57.109Z,27.67
2018-11-22T02:57:26.860Z,29.17
2018-11-22T02:59:57.020Z,27.55
2018-11-22T03:02:26.840Z,26.70
2018-11-22T03:04:56.846Z,27.03
2018-11-22T03:07:26.750Z,28.23
2018-11-22T03:09:56.954Z,29.90
2018-11-22T03:12:26.674Z,35.77
2018-11-22T03:14:56.529Z,29.77
2018-11-22T03:17:26.624Z,33.27
2018-11-22T03:19:56.884Z,33.80
2018-11-22T03:22:26.689Z,33.53
2018-11-22T03:24:56.434Z,26.80
2018-11-22T03:27:26.299Z,31.20
2018-11-22T03:29:56.504Z,25.00
2018-11-22T03:32:26.225Z,23.37
2018-11-22T03:34:56.190Z,19.53
2018-11-22T03:37:26.144Z,30.47
2018-11-22T03:39:56.324Z,29.47
2018-11-22T03:42:26.065Z,26.67
2018-11-22T03:44:56.510Z,22.57
2018-11-22T03:47:26.600Z,29.97
2018-11-22T03:49:56.369Z,23.73
2018-11-22T03:52:27.955Z,15.80
2018-11-22T03:54:57.851Z,11.20
2018-11-22T03:57:27.666Z,12.90
2018-11-22T03:59:57.518Z,20.43
2018-11-22T04:02:27.364Z,16.10
2018-11-22T04:04:57.575Z,18.43
2018-11-22T04:07:27.409Z,18.73
2018-11-22T04:09:57.530Z,17.87
2018-11-22T04:12:27.309Z,24.07
2018-11-22T04:14:58.376Z,29.27
2018-11-22T04:17:28.190Z,35.80
2018-11-22T04:19:58.014Z,32.27
2018-11-22T04:22:27.864Z,30.20
2018-11-22T04:24:58.101Z,25.47
2018-11-22T04:27:28.169Z,31.87
2018-11-22T04:29:58.235Z,32.40
2018-11-22T04:32:28.094Z,33.77
2018-11-22T04:34:57.870Z,31.73
2018-11-22T04:37:27.955Z,35.03
2018-11-22T04:39:58.027Z,34.83
2018-11-22T04:42:28.025Z,29.30
2018-11-22T04:44:57.855Z,26.53
2018-11-22T04:47:27.855Z,26.63
2018-11-22T04:49:58.145Z,30.67
2018-11-22T04:52:27.799Z,31.37
2018-11-22T04:54:57.675Z,33.00
2018-11-22T04:57:27.660Z,31.17
2018-11-22T04:59:57.680Z,28.90
2018-11-22T05:02:27.980Z,29.17
2018-11-22T05:04:58.100Z,22.60
2018-11-22T05:07:27.891Z,32.00
2018-11-22T05:09:58.209Z,24.30
2018-11-22T05:12:28.020Z,31.70
2018-11-22T05:14:57.950Z,35.17
2018-11-22T05:17:28.235Z,30.83
2018-11-22T05:19:58.430Z,33.23
2018-11-22T05:22:28.874Z,31.00
2018-11-22T05:24:58.655Z,28.50
2018-11-22T05:27:28.780Z,27.17
2018-11-22T05:29:59.263Z,28.83
2018-11-22T05:32:29.104Z,43.13
2018-11-22T05:34:59.035Z,30.60
2018-11-22T05:37:29.014Z,40.00
2018-11-22T05:39:59.064Z,35.47
2018-11-22T05:42:29.408Z,36.17
2018-11-22T05:44:59.290Z,40.30
2018-11-22T05:47:29.474Z,37.03
2018-11-22T05:49:59.887Z,37.03
2018-11-22T05:52:30.349Z,35.57
2018-11-22T05:55:00.134Z,40.10
2018-11-22T05:57:30.204Z,37.60
2018-11-22T06:00:00.028Z,39.47
2018-11-22T06:02:30.030Z,36.10
2018-11-22T06:05:00.214Z,36.93
2018-11-22T06:07:30.069Z,30.30
2018-11-22T06:10:00.251Z,38.57
2018-11-22T06:12:30.099Z,36.37
2018-11-22T06:14:59.994Z,37.98
2018-11-22T06:17:30.065Z,37.73
2018-11-22T06:20:00.096Z,43.47
2018-11-22T06:22:30.551Z,44.90
2018-11-22T06:25:03.774Z,43.97
2018-11-22T06:27:30.896Z,45.30
2018-11-22T06:30:01.195Z,44.88
2018-11-22T06:32:31.154Z,43.58
2018-11-22T06:35:01.039Z,39.97
2018-11-22T06:37:31.434Z,37.07
2018-11-22T06:40:01.530Z,34.10
2018-11-22T06:42:31.795Z,33.10
2018-11-22T06:45:01.850Z,31.90
2018-11-22T06:47:32.039Z,25.73
2018-11-22T06:50:02.033Z,20.85
2018-11-22T06:52:32.385Z,13.27
2018-11-22T06:55:02.530Z,18.87
2018-11-22T06:57:32.629Z,11.47
2018-11-22T07:00:02.529Z,16.03
2018-11-22T07:02:32.524Z,16.47
2018-11-22T07:05:02.391Z,15.83
2018-11-22T07:07:32.856Z,8.33
2018-11-22T07:10:03.354Z,18.60
2018-11-22T07:12:33.459Z,9.43
2018-11-22T07:15:03.319Z,8.10
2018-11-22T07:17:33.300Z,10.27
2018-11-22T07:20:03.404Z,11.80
2018-11-22T07:22:33.415Z,6.27
2018-11-22T07:25:03.650Z,6.53
2018-11-22T07:27:38.271Z,5.57
2018-11-22T07:30:04.471Z,7.42
2018-11-22T07:32:34.270Z,3.13
2018-11-22T07:35:04.310Z,7.15
2018-11-22T07:37:37.629Z,6.23
2018-11-22T07:40:13.549Z,15.60
2018-11-22T07:42:50.527Z,13.30
2018-11-22T07:45:19.099Z,20.87
2018-11-22T07:47:53.354Z,24.67
2018-11-22T07:50:24.162Z,22.77
2018-11-22T07:52:56.010Z,29.37
2018-11-22T07:55:25.080Z,23.33
2018-11-22T07:57:54.979Z,22.77
2018-11-22T08:00:29.609Z,22.80
2018-11-22T08:02:59.870Z,24.97
2018-11-22T08:05:30.880Z,17.70
2018-11-22T08:08:00.914Z,25.70
2018-11-22T08:10:32.544Z,25.00
2018-11-22T08:13:05.429Z,24.07
2018-11-22T08:15:37.989Z,24.43
2018-11-22T08:18:10.380Z,21.57
2018-11-22T08:20:40.479Z,19.50
2018-11-22T08:23:10.829Z,23.53
2018-11-22T08:25:41.079Z,26.60
2018-11-22T12:15:56.280Z,4.83
2018-11-22T12:18:27.592Z,1.57
2018-11-22T12:20:58.153Z,4.23
2018-11-22T12:23:28.719Z,2.37
2018-11-22T12:25:59.470Z,1.47
2018-11-22T12:28:30.395Z,3.77
2018-11-22T12:31:06.472Z,1.87
2018-11-22T12:36:31.421Z,5.00
2018-11-22T12:39:01.952Z,2.23
2018-11-22T12:41:36.645Z,1.53
2018-11-22T12:44:07.391Z,15.07
2018-11-22T12:46:38.197Z,1.57
2018-11-22T12:49:09.064Z,2.77
2018-11-22T12:51:39.691Z,2.60
2018-11-22T12:54:10.129Z,1.97
2018-11-22T12:56:40.655Z,9.47
2018-11-22T12:59:11.005Z,2.07
2018-11-22T13:01:41.495Z,2.20
2018-11-22T13:04:12.256Z,1.67
2018-11-22T13:06:43.100Z,2.63
2018-11-22T13:09:13.740Z,2.33
2018-11-22T13:11:47.716Z,0.60
2018-11-22T13:14:15.080Z,0.80
2018-11-22T13:16:46.192Z,8.87
2018-11-22T13:19:17.100Z,3.77
2018-11-22T13:21:47.665Z,3.67
2018-11-22T13:24:18.240Z,4.83
2018-11-22T13:26:50.129Z,8.67
2018-11-22T13:29:19.649Z,3.73
2018-11-22T13:31:50.379Z,1.50
2018-11-22T13:34:21.057Z,7.30
2018-11-22T13:36:51.719Z,3.27
2018-11-22T13:39:22.435Z,2.00
2018-11-22T13:41:53.085Z,5.13
2018-11-22T13:44:24.170Z,1.90
2018-11-22T13:46:55.510Z,2.07
2018-11-22T13:49:26.286Z,2.80
2018-11-22T13:51:57.159Z,2.20
2018-11-22T13:54:28.140Z,2.53
2018-11-22T13:56:59.270Z,4.13
2018-11-22T13:59:30.034Z,3.40
2018-11-22T14:02:00.816Z,1.83
2018-11-22T14:04:31.305Z,6.73
2018-11-22T14:07:01.968Z,6.03
2018-11-22T14:09:32.575Z,1.27
2018-11-22T14:12:03.185Z,3.83
2018-11-22T14:14:33.802Z,2.23
2018-11-22T14:17:04.415Z,9.53
2018-11-22T14:19:34.961Z,6.27
2018-11-22T14:22:06.040Z,2.10
2018-11-22T14:24:36.515Z,2.07
2018-11-22T14:27:07.074Z,4.43
2018-11-22T14:29:37.464Z,4.40
2018-11-22T14:32:08.315Z,7.93
2018-11-22T14:34:38.845Z,5.57
2018-11-22T14:37:09.820Z,3.37
2018-11-22T14:39:40.255Z,4.83
2018-11-22T14:42:10.805Z,10.73
2018-11-22T14:44:41.185Z,2.43
2018-11-22T14:47:11.785Z,3.00
2018-11-22T14:49:42.482Z,10.30
2018-11-22T14:52:13.241Z,3.77
2018-11-22T14:54:43.806Z,3.90
2018-11-22T14:57:14.572Z,2.77
2018-11-22T14:59:45.070Z,1.50
2018-11-22T15:02:15.666Z,2.70
2018-11-22T15:04:46.106Z,6.23
2018-11-22T15:07:17.318Z,7.50
2018-11-22T15:09:47.785Z,12.27
2018-11-22T15:12:18.391Z,6.03
2018-11-22T15:14:48.868Z,5.80
2018-11-22T15:17:19.405Z,8.53
2018-11-22T15:19:50.291Z,9.93
2018-11-22T15:22:20.875Z,2.53
2018-11-22T15:24:51.710Z,4.60
2018-11-22T15:27:22.221Z,3.00
2018-11-22T15:29:52.751Z,2.40
2018-11-22T15:32:23.425Z,4.70
2018-11-22T15:34:53.955Z,5.77
2018-11-22T15:37:24.460Z,3.57
2018-11-22T15:39:55.400Z,4.83
2018-11-22T15:42:26.016Z,4.10
2018-11-22T15:44:56.871Z,3.13
2018-11-22T15:47:27.636Z,9.33
2018-11-22T15:49:58.057Z,8.47
2018-11-22T15:52:28.750Z,9.30
2018-11-22T15:54:59.515Z,3.20
2018-11-22T15:57:30.205Z,8.73
2018-11-22T16:00:00.880Z,1.60
2018-11-22T16:02:31.455Z,15.50
2018-11-22T16:05:02.030Z,3.80
2018-11-22T16:07:32.785Z,2.23
2018-11-22T16:10:03.425Z,5.17
2018-11-22T16:12:34.009Z,3.53
2018-11-22T16:15:04.465Z,7.13
2018-11-22T16:17:35.224Z,7.63
2018-11-22T16:20:05.885Z,8.23
2018-11-22T16:22:36.525Z,8.20
2018-11-22T16:25:08.789Z,5.33
2018-11-22T16:27:39.619Z,5.77
2018-11-22T16:30:16.940Z,6.33
2018-11-22T16:32:48.139Z,5.23
2018-11-22T16:35:19.440Z,6.17
2018-11-22T16:37:50.025Z,2.70
2018-11-22T16:40:22.394Z,10.90
2018-11-22T16:42:53.819Z,8.53
2018-11-22T16:45:26.725Z,5.47
2018-11-22T16:47:57.652Z,10.90
2018-11-22T16:50:29.265Z,7.53
2018-11-22T16:52:59.956Z,3.27
2018-11-22T16:55:30.739Z,4.30
2018-11-22T16:58:02.300Z,4.00
2018-11-22T17:00:40.181Z,7.87
2018-11-22T17:03:13.399Z,7.70
2018-11-22T17:05:44.479Z,10.43
2018-11-22T17:08:15.253Z,12.47
2018-11-22T17:10:45.724Z,4.13
2018-11-22T17:13:16.374Z,9.00
2018-11-22T17:15:46.810Z,8.10
2018-11-22T17:18:17.625Z,6.03
2018-11-22T17:20:48.039Z,6.07
2018-11-22T17:23:18.559Z,6.77
2018-11-22T17:25:49.268Z,4.27
2018-11-22T17:28:19.883Z,3.67
2018-11-22T17:30:50.282Z,3.47
2018-11-22T17:33:21.190Z,4.57
2018-11-22T17:35:51.643Z,5.97
2018-11-22T17:38:22.179Z,5.17
2018-11-22T17:40:53.058Z,2.50
2018-11-22T17:43:23.613Z,5.37
2018-11-22T17:45:54.350Z,3.67
2018-11-22T17:48:24.841Z,3.43
2018-11-22T17:50:55.351Z,7.83
2018-11-22T17:53:25.984Z,7.67
2018-11-22T17:55:56.393Z,5.70
2018-11-22T17:58:33.369Z,3.73
2018-11-22T18:01:03.930Z,2.33
2018-11-22T18:03:34.754Z,4.00
2018-11-22T18:06:05.310Z,7.07
2018-11-22T18:08:35.748Z,6.40
2018-11-22T18:11:06.600Z,4.13
2018-11-22T18:13:37.130Z,4.13
2018-11-22T18:16:07.670Z,2.43
2018-11-22T18:18:38.491Z,4.30
2018-11-22T18:21:09.153Z,7.10
2018-11-22T18:23:39.666Z,8.37
2018-11-22T18:26:10.125Z,3.43
2018-11-22T18:28:40.603Z,5.93
2018-11-22T18:31:10.919Z,5.80
2018-11-22T18:33:41.673Z,6.63
2018-11-22T18:36:12.489Z,4.87
2018-11-22T18:38:42.998Z,5.33
2018-11-22T18:41:13.544Z,4.30
2018-11-22T18:43:44.028Z,5.30
2018-11-22T18:46:14.369Z,6.70
2018-11-22T18:48:44.988Z,3.13
2018-11-22T18:51:15.346Z,5.23
2018-11-22T18:53:45.839Z,4.47
2018-11-22T18:56:16.204Z,5.30
2018-11-22T18:58:46.904Z,5.57
2018-11-22T19:01:17.568Z,13.60
2018-11-22T19:03:48.413Z,6.37
2018-11-22T19:06:19.004Z,12.63
2018-11-22T19:08:49.380Z,12.27
2018-11-22T19:11:19.913Z,8.80
2018-11-22T19:13:50.799Z,7.73
2018-11-22T19:16:21.354Z,8.47
2018-11-22T19:18:52.459Z,14.13
2018-11-22T19:21:22.849Z,9.80
2018-11-22T19:23:53.746Z,9.33
2018-11-22T19:26:24.734Z,7.87
2018-11-22T19:28:55.419Z,15.47
2018-11-22T19:31:25.879Z,9.57
2018-11-22T19:33:56.822Z,16.40
2018-11-22T19:36:27.946Z,23.20
2018-11-22T19:38:58.478Z,10.23
2018-11-22T19:41:29.454Z,10.33
2018-11-22T19:44:00.418Z,7.60
2018-11-22T19:46:30.818Z,9.27
2018-11-22T19:49:01.439Z,8.23
2018-11-22T19:51:31.864Z,13.00
2018-11-22T19:54:02.444Z,5.87
2018-11-22T19:56:33.049Z,9.70
2018-11-22T19:59:03.654Z,5.57
2018-11-22T20:01:34.158Z,10.57
2018-11-22T20:04:04.895Z,4.57
2018-11-22T20:06:35.339Z,6.07
2018-11-22T20:09:07.184Z,7.67
2018-11-22T20:11:38.753Z,4.90
2018-11-22T20:14:09.824Z,7.47
2018-11-22T20:16:40.738Z,7.80
2018-11-22T20:19:12.409Z,8.57
2018-11-22T20:21:42.753Z,6.83
2018-11-22T20:24:13.785Z,9.33
2018-11-22T20:26:45.113Z,8.27
2018-11-22T20:29:15.742Z,6.37
2018-11-22T20:31:46.509Z,6.83
2018-11-22T20:34:17.609Z,8.20
2018-11-22T20:36:48.049Z,12.77
2018-11-22T20:39:18.782Z,9.87
2018-11-22T20:41:49.324Z,5.23
2018-11-22T20:44:20.099Z,8.00
2018-11-22T20:46:50.684Z,6.37
2018-11-22T20:49:22.263Z,3.80
2018-11-22T20:51:52.234Z,5.90
2018-11-22T20:54:24.959Z,9.97
2018-11-22T20:56:55.614Z,5.17
2018-11-22T20:59:26.244Z,8.13
2018-11-22T21:01:56.766Z,7.40
2018-11-22T21:04:27.338Z,4.50
2018-11-22T21:06:57.707Z,8.57
2018-11-22T21:09:28.308Z,2.47
2018-11-22T21:11:58.810Z,5.27
2018-11-22T21:14:29.414Z,3.50
2018-11-22T21:17:00.721Z,6.77
2018-11-22T21:19:30.463Z,4.03
2018-11-22T21:22:00.958Z,7.87
2018-11-22T21:24:31.864Z,2.80
2018-11-22T21:27:02.440Z,4.90
2018-11-22T21:29:32.965Z,4.33
2018-11-22T21:32:04.529Z,2.63
2018-11-22T21:34:35.339Z,3.77
2018-11-22T21:37:06.071Z,1.97
2018-11-22T21:39:36.644Z,3.63
2018-11-22T21:42:07.219Z,1.73
2018-11-22T21:44:37.734Z,8.47
2018-11-22T21:47:08.224Z,5.90
2018-11-22T21:49:38.689Z,7.07
2018-11-22T21:52:09.153Z,8.80
2018-11-22T21:54:40.032Z,7.87
2018-11-22T21:57:10.515Z,3.47
2018-11-22T21:59:41.015Z,4.83
2018-11-22T22:02:11.455Z,5.93
2018-11-22T22:04:41.984Z,3.10
2018-11-22T22:07:12.499Z,3.60
2018-11-22T22:09:43.220Z,4.63
2018-11-22T22:12:13.879Z,8.47
2018-11-22T22:14:44.400Z,10.23
2018-11-22T22:17:15.604Z,5.70
2018-11-22T22:19:46.064Z,2.20
2018-11-22T22:22:16.829Z,11.80
2018-11-22T22:24:47.561Z,6.77
2018-11-22T22:27:18.120Z,9.90
2018-11-22T22:29:48.652Z,8.63
2018-11-22T22:32:19.155Z,5.37
2018-11-22T22:34:49.824Z,12.97
2018-11-22T22:37:20.218Z,8.17
2018-11-22T22:39:52.201Z,18.13
2018-11-22T22:42:22.835Z,9.70
2018-11-22T22:44:53.414Z,11.67
2018-11-22T22:47:23.979Z,7.90
2018-11-22T22:49:54.355Z,8.23
2018-11-22T22:52:25.355Z,10.20
2018-11-22T22:54:55.874Z,4.13
2018-11-22T22:57:26.398Z,11.80
2018-11-22T22:59:56.970Z,11.13
2018-11-22T23:02:27.329Z,10.60
2018-11-22T23:05:00.879Z,14.50
2018-11-22T23:07:31.563Z,15.50
2018-11-22T23:10:02.449Z,12.60
2018-11-22T23:12:35.959Z,8.93
2018-11-22T23:15:09.274Z,13.97
2018-11-22T23:17:40.875Z,14.70
2018-11-22T23:20:15.899Z,12.13
2018-11-22T23:22:47.212Z,5.13
2018-11-22T23:25:19.130Z,4.60
2018-11-22T23:27:49.931Z,9.43
2018-11-22T23:30:22.806Z,5.63
2018-11-22T23:32:54.759Z,5.97
2018-11-22T23:35:25.199Z,5.07
2018-11-22T23:37:56.314Z,3.60
2018-11-22T23:40:28.099Z,7.73
2018-11-22T23:42:58.514Z,5.10
2018-11-22T23:45:30.277Z,9.90
2018-11-22T23:48:00.811Z,2.20
2018-11-22T23:50:32.449Z,4.50
2018-11-22T23:53:04.019Z,7.03
2018-11-22T23:55:35.464Z,15.10
2018-11-22T23:58:05.930Z,10.70
